Time;durP1;ratioP1;P1;durP2;ratioP2;P2;SDS_P1;SDS_P2;PMS_P1;PMS_P2;Temp;Humidity;BMP_temperature;BMP_pressure;BME280_temperature;BME280_humidity;BME280_pressure;Samples;Min_cycle;Max_cycle;Signal;HPM_P1;HPM_P2
2023/04/15 00:00:25;;;;;;;;;;;8.80;99.90;;;;;;5038194;28;19921;-69
2023/04/15 00:02:51;;;;;;;;;;;8.70;99.90;;;;;;5042069;28;19936;-69
2023/04/15 00:05:17;;;;;;;;;;;8.70;99.90;;;;;;5039015;28;19917;-69
2023/04/15 00:07:45;;;;;;;;;;;8.70;99.90;;;;;;5038771;28;19913;-69
2023/04/15 00:10:11;;;;;;;;;;;8.60;99.90;;;;;;5040351;28;19919;-69
2023/04/15 00:12:37;;;;;;;;;;;8.50;99.90;;;;;;5040565;28;19917;-68
2023/04/15 00:15:02;;;;;;;;;;;8.50;99.90;;;;;;5031912;28;19920;-68
2023/04/15 00:17:28;;;;;;;;;;;8.50;99.90;;;;;;5035743;28;19947;-69
2023/04/15 00:19:54;;;;;;;;;;;8.50;99.90;;;;;;5040338;28;20012;-67
2023/04/15 00:22:20;;;;;;;;;;;8.40;99.90;;;;;;5045104;28;19917;-67
2023/04/15 00:24:46;;;;;;;;;;;8.40;99.90;;;;;;5055831;28;19920;-68
2023/04/15 00:27:11;;;;;;;;;;;8.40;99.90;;;;;;5046554;28;19913;-68
2023/04/15 00:29:37;;;;;;;;;;;8.40;99.90;;;;;;5042954;28;19923;-68
2023/04/15 00:32:02;;;;;;;;;;;8.30;99.90;;;;;;5042063;28;19921;-69
2023/04/15 00:34:29;;;;;;;;;;;8.30;99.90;;;;;;5049902;28;19917;-67
2023/04/15 00:36:55;;;;;;;;;;;8.30;99.90;;;;;;5049220;28;19913;-69
2023/04/15 00:39:21;;;;;;;;;;;8.20;99.90;;;;;;5055924;28;19912;-68
2023/04/15 00:41:47;;;;;;;;;;;8.10;99.90;;;;;;5042273;28;19948;-68
2023/04/15 00:44:13;;;;;;;;;;;8.00;99.90;;;;;;5039658;28;19972;-69
2023/04/15 00:46:39;;;;;;;;;;;8.00;99.90;;;;;;5037252;28;19921;-67
2023/04/15 00:49:05;;;;;;;;;;;8.00;99.90;;;;;;5043022;28;21135;-68
2023/04/15 00:51:32;;;;;;;;;;;8.00;99.90;;;;;;5050341;28;19979;-68
2023/04/15 00:53:59;;;;;;;;;;;8.10;99.90;;;;;;5044951;28;19914;-67
2023/04/15 00:56:25;;;;;;;;;;;8.20;99.90;;;;;;5054930;28;19917;-67
2023/04/15 00:58:51;;;;;;;;;;;8.10;99.90;;;;;;5042938;28;19960;-68
2023/04/15 01:01:20;;;;;;;;;;;8.10;99.90;;;;;;5044510;28;19952;-68
2023/04/15 01:03:46;;;;;;;;;;;8.20;99.90;;;;;;5042121;28;20384;-68
2023/04/15 01:06:12;;;;;;;;;;;8.20;99.90;;;;;;5056267;28;19920;-69
2023/04/15 01:08:38;;;;;;;;;;;8.20;99.90;;;;;;5047047;28;19978;-68
2023/04/15 01:11:04;;;;;;;;;;;8.20;99.90;;;;;;5057332;28;20407;-67
2023/04/15 01:13:30;;;;;;;;;;;8.20;99.90;;;;;;5046793;28;19974;-68
2023/04/15 01:15:56;;;;;;;;;;;8.20;99.90;;;;;;5047776;28;19929;-68
2023/04/15 01:18:22;;;;;;;;;;;8.20;99.90;;;;;;5052296;28;20007;-69
2023/04/15 01:20:48;;;;;;;;;;;8.20;99.90;;;;;;5047801;28;19913;-69
2023/04/15 01:23:14;;;;;;;;;;;8.30;99.90;;;;;;5049861;28;19927;-69
2023/04/15 01:25:40;;;;;;;;;;;8.30;99.90;;;;;;5051191;28;19967;-68
2023/04/15 01:28:08;;;;;;;;;;;8.40;99.90;;;;;;5052343;28;19919;-67
2023/04/15 01:30:34;;;;;;;;;;;8.40;99.90;;;;;;5047740;28;19962;-69
2023/04/15 01:33:00;;;;;;;;;;;8.40;99.90;;;;;;5034610;28;19917;-68
2023/04/15 01:35:25;;;;;;;;;;;8.50;99.90;;;;;;5043018;28;19975;-68
2023/04/15 01:37:53;;;;;;;;;;;8.50;99.90;;;;;;5040763;28;19979;-68
2023/04/15 01:40:19;;;;;;;;;;;8.50;99.90;;;;;;5039261;28;19913;-68
2023/04/15 01:42:45;;;;;;;;;;;8.50;99.90;;;;;;5041392;28;20268;-68
2023/04/15 01:45:11;;;;;;;;;;;8.50;99.90;;;;;;5038719;28;19948;-69
2023/04/15 01:47:37;;;;;;;;;;;8.60;99.90;;;;;;5045080;28;19916;-67
2023/04/15 01:50:02;;;;;;;;;;;8.60;99.90;;;;;;5042532;28;20331;-68
2023/04/15 01:52:28;;;;;;;;;;;8.60;99.90;;;;;;5035952;28;20004;-69
2023/04/15 01:54:53;;;;;;;;;;;8.60;99.90;;;;;;5044991;28;20015;-68
2023/04/15 01:57:19;;;;;;;;;;;8.60;99.90;;;;;;5033568;28;19913;-68
2023/04/15 01:59:45;;;;;;;;;;;8.50;99.90;;;;;;5029671;28;19947;-68
2023/04/15 02:02:11;;;;;;;;;;;8.50;99.90;;;;;;5038915;28;19923;-69
2023/04/15 02:04:37;;;;;;;;;;;8.50;99.90;;;;;;5033862;28;19921;-68
2023/04/15 02:07:02;;;;;;;;;;;8.50;99.90;;;;;;5037091;28;20600;-68
2023/04/15 02:09:28;;;;;;;;;;;8.50;99.90;;;;;;5040318;28;19913;-69
2023/04/15 02:11:53;;;;;;;;;;;8.50;99.90;;;;;;5042081;28;19920;-68
2023/04/15 02:14:19;;;;;;;;;;;8.50;99.90;;;;;;5039040;28;20288;-68
2023/04/15 02:16:45;;;;;;;;;;;8.50;99.90;;;;;;5042374;28;19912;-67
2023/04/15 02:19:11;;;;;;;;;;;8.50;99.90;;;;;;5042916;28;20382;-67
2023/04/15 02:21:37;;;;;;;;;;;8.50;99.90;;;;;;5054895;28;19923;-67
2023/04/15 02:24:03;;;;;;;;;;;8.50;99.90;;;;;;5047461;28;19921;-67
2023/04/15 02:26:31;;;;;;;;;;;8.50;99.90;;;;;;5045014;28;19919;-67
2023/04/15 02:28:57;;;;;;;;;;;8.50;99.90;;;;;;5035301;28;19913;-67
2023/04/15 02:31:22;;;;;;;;;;;8.50;99.90;;;;;;5043618;28;19957;-69
2023/04/15 02:33:48;;;;;;;;;;;8.50;99.90;;;;;;5039862;28;20288;-67
2023/04/15 02:36:13;;;;;;;;;;;8.50;99.90;;;;;;5045546;28;19920;-67
2023/04/15 02:38:41;;;;;;;;;;;8.50;99.90;;;;;;5042985;28;19919;-69
2023/04/15 02:41:07;;;;;;;;;;;8.50;99.90;;;;;;5038953;28;20004;-67
2023/04/15 02:43:33;;;;;;;;;;;8.60;99.90;;;;;;5049062;28;20365;-68
2023/04/15 02:45:58;;;;;;;;;;;8.60;99.90;;;;;;5036261;28;19924;-68
2023/04/15 02:48:24;;;;;;;;;;;8.60;99.90;;;;;;5046515;28;20423;-68
2023/04/15 02:50:50;;;;;;;;;;;8.60;99.90;;;;;;5046671;28;19913;-67
2023/04/15 02:53:16;;;;;;;;;;;8.60;99.90;;;;;;5049249;28;19917;-67
2023/04/15 02:55:41;;;;;;;;;;;8.60;99.90;;;;;;5042523;28;19944;-68
2023/04/15 02:58:07;;;;;;;;;;;8.60;99.90;;;;;;5056623;28;19951;-68
2023/04/15 03:00:33;;;;;;;;;;;8.60;99.90;;;;;;5045086;28;20020;-68
2023/04/15 03:03:01;;;;;;;;;;;8.60;99.90;;;;;;5042326;28;19928;-69
2023/04/15 03:05:26;;;;;;;;;;;8.50;99.90;;;;;;5043250;28;20015;-68
2023/04/15 03:07:52;;;;;;;;;;;8.50;99.90;;;;;;5046791;28;20008;-67
2023/04/15 03:10:18;;;;;;;;;;;8.60;99.90;;;;;;5044467;28;19912;-68
2023/04/15 03:12:44;;;;;;;;;;;8.50;99.90;;;;;;5043736;28;19919;-67
2023/04/15 03:15:10;;;;;;;;;;;8.50;99.90;;;;;;5053786;28;19921;-67
2023/04/15 03:17:35;;;;;;;;;;;8.50;99.90;;;;;;5050256;28;19955;-66
2023/04/15 03:20:02;;;;;;;;;;;8.50;99.90;;;;;;5039315;28;19913;-67
2023/04/15 03:22:28;;;;;;;;;;;8.40;99.90;;;;;;5043925;28;19920;-67
2023/04/15 03:24:53;;;;;;;;;;;8.30;99.90;;;;;;5046703;28;19971;-68
2023/04/15 03:27:19;;;;;;;;;;;8.20;99.90;;;;;;5051010;28;19917;-68
2023/04/15 03:29:47;;;;;;;;;;;8.10;99.90;;;;;;5046440;28;21504;-68
2023/04/15 03:32:14;;;;;;;;;;;8.00;99.90;;;;;;5051916;28;19923;-68
2023/04/15 03:34:40;;;;;;;;;;;8.00;99.90;;;;;;5053846;28;19912;-68
2023/04/15 03:37:06;;;;;;;;;;;7.90;99.90;;;;;;5042902;28;19913;-68
2023/04/15 03:39:32;;;;;;;;;;;7.80;99.90;;;;;;5050730;28;19913;-67
2023/04/15 03:44:33;;;;;;;;;;;7.80;99.90;;;;;;5026789;28;20027;-62
2023/04/15 03:46:58;;;;;;;;;;;7.70;99.90;;;;;;5028514;28;20016;-62
2023/04/15 03:49:24;;;;;;;;;;;7.70;99.90;;;;;;5031372;28;19919;-63
2023/04/15 03:51:50;;;;;;;;;;;7.70;99.90;;;;;;5025792;28;19921;-63
2023/04/15 03:54:15;;;;;;;;;;;7.70;99.90;;;;;;5027595;28;19913;-62
2023/04/15 03:56:41;;;;;;;;;;;7.70;99.90;;;;;;5028519;28;19940;-63
2023/04/15 03:59:06;;;;;;;;;;;7.70;99.90;;;;;;5027193;28;19966;-62
2023/04/15 04:01:32;;;;;;;;;;;7.70;99.90;;;;;;5029166;28;20030;-63
2023/04/15 04:03:57;;;;;;;;;;;7.70;99.90;;;;;;5027073;28;20365;-63
2023/04/15 04:06:23;;;;;;;;;;;7.80;99.90;;;;;;5027456;28;20059;-62
2023/04/15 04:08:49;;;;;;;;;;;7.80;99.90;;;;;;5029824;28;19913;-63
2023/04/15 04:11:15;;;;;;;;;;;7.80;99.90;;;;;;5028082;28;19921;-59
2023/04/15 04:13:40;;;;;;;;;;;7.70;99.90;;;;;;5021938;28;20011;-63
2023/04/15 04:16:06;;;;;;;;;;;7.70;99.90;;;;;;5035145;28;20377;-63
2023/04/15 04:18:32;;;;;;;;;;;7.70;99.90;;;;;;5024853;28;19920;-63
2023/04/15 04:20:58;;;;;;;;;;;7.70;99.90;;;;;;5028265;28;19929;-63
2023/04/15 04:23:23;;;;;;;;;;;7.70;99.90;;;;;;5031898;28;19928;-63
2023/04/15 04:25:49;;;;;;;;;;;7.70;99.90;;;;;;5026280;28;19913;-64
2023/04/15 04:28:14;;;;;;;;;;;7.70;99.90;;;;;;5021919;28;19921;-63
2023/04/15 04:30:40;;;;;;;;;;;7.80;99.90;;;;;;5028300;28;20336;-62
2023/04/15 04:33:06;;;;;;;;;;;7.80;99.90;;;;;;5027566;28;19948;-62
2023/04/15 04:35:33;;;;;;;;;;;7.80;99.90;;;;;;5024630;28;19992;-62
2023/04/15 04:37:59;;;;;;;;;;;7.80;99.90;;;;;;5026941;28;19917;-63
2023/04/15 04:40:26;;;;;;;;;;;7.90;99.90;;;;;;5032892;28;20025;-63
2023/04/15 04:42:52;;;;;;;;;;;7.80;99.90;;;;;;5027718;28;19929;-63
2023/04/15 04:45:18;;;;;;;;;;;7.80;99.90;;;;;;5032579;28;19971;-63
2023/04/15 04:47:43;;;;;;;;;;;7.80;99.90;;;;;;5031858;28;20320;-63
2023/04/15 04:50:09;;;;;;;;;;;7.80;99.90;;;;;;5037953;28;19917;-63
2023/04/15 04:52:35;;;;;;;;;;;7.80;99.90;;;;;;5033619;28;20377;-63
2023/04/15 04:55:00;;;;;;;;;;;7.80;99.90;;;;;;5035268;28;20007;-63
2023/04/15 04:57:26;;;;;;;;;;;7.80;99.90;;;;;;5027113;28;19964;-62
2023/04/15 04:59:51;;;;;;;;;;;7.80;99.90;;;;;;5031995;28;19914;-63
2023/04/15 05:02:17;;;;;;;;;;;7.80;99.90;;;;;;5036418;28;19921;-63
2023/04/15 05:04:43;;;;;;;;;;;7.80;99.90;;;;;;5041699;28;19920;-62
2023/04/15 05:07:08;;;;;;;;;;;7.80;99.90;;;;;;5037300;28;20464;-62
2023/04/15 05:09:35;;;;;;;;;;;7.80;99.90;;;;;;5038611;28;20416;-64
2023/04/15 05:12:01;;;;;;;;;;;7.80;99.90;;;;;;5033228;28;20840;-62
2023/04/15 05:14:26;;;;;;;;;;;7.80;99.90;;;;;;5032868;28;19917;-63
2023/04/15 05:16:52;;;;;;;;;;;7.80;99.90;;;;;;5035481;28;19912;-62
2023/04/15 05:19:18;;;;;;;;;;;7.80;99.90;;;;;;5037663;28;19919;-62
2023/04/15 05:21:43;;;;;;;;;;;7.80;99.90;;;;;;5031491;28;20346;-62
2023/04/15 05:24:09;;;;;;;;;;;7.90;99.90;;;;;;5034278;28;19998;-62
2023/04/15 05:26:34;;;;;;;;;;;7.90;99.90;;;;;;5029862;28;19913;-62
2023/04/15 05:29:00;;;;;;;;;;;7.90;99.90;;;;;;5016583;28;20363;-62
2023/04/15 05:31:26;;;;;;;;;;;7.90;99.90;;;;;;5030686;28;20015;-63
2023/04/15 05:33:51;;;;;;;;;;;7.90;99.90;;;;;;5031022;28;20276;-62
2023/04/15 05:36:17;;;;;;;;;;;7.90;99.90;;;;;;5031468;28;19924;-62
2023/04/15 05:38:42;;;;;;;;;;;7.90;99.90;;;;;;5028436;28;20048;-61
2023/04/15 05:41:08;;;;;;;;;;;7.90;99.90;;;;;;5028849;28;19913;-62
2023/04/15 05:43:34;;;;;;;;;;;7.90;99.90;;;;;;5021404;28;19921;-62
2023/04/15 05:45:59;;;;;;;;;;;7.90;99.90;;;;;;5029356;28;19928;-62
2023/04/15 05:48:25;;;;;;;;;;;8.00;99.90;;;;;;5030229;28;20003;-63
2023/04/15 05:50:50;;;;;;;;;;;8.00;99.90;;;;;;5023236;28;20383;-63
2023/04/15 05:53:16;;;;;;;;;;;8.00;99.90;;;;;;5030983;28;20845;-62
2023/04/15 05:55:42;;;;;;;;;;;8.00;99.90;;;;;;5028786;28;19975;-62
2023/04/15 05:58:07;;;;;;;;;;;8.10;99.90;;;;;;5026204;28;19920;-62
2023/04/15 06:00:33;;;;;;;;;;;8.20;99.90;;;;;;5031041;28;19913;-62
2023/04/15 06:02:59;;;;;;;;;;;8.20;99.90;;;;;;5028913;28;20395;-62
2023/04/15 06:05:25;;;;;;;;;;;8.20;99.90;;;;;;5052109;28;19982;-63
2023/04/15 06:07:51;;;;;;;;;;;8.20;99.90;;;;;;5033328;28;20364;-63
2023/04/15 06:10:16;;;;;;;;;;;8.30;99.90;;;;;;5032573;28;19935;-64
2023/04/15 06:12:42;;;;;;;;;;;8.30;99.90;;;;;;5027197;28;20003;-62
2023/04/15 06:15:09;;;;;;;;;;;8.30;99.90;;;;;;5030209;28;19913;-62
2023/04/15 06:17:35;;;;;;;;;;;8.20;99.90;;;;;;5027930;28;20389;-63
2023/04/15 06:20:00;;;;;;;;;;;8.20;99.90;;;;;;5024085;28;19913;-63
2023/04/15 06:22:26;;;;;;;;;;;8.20;99.90;;;;;;5030919;28;19948;-63
2023/04/15 06:24:51;;;;;;;;;;;8.20;99.90;;;;;;5037213;28;19924;-63
2023/04/15 06:27:17;;;;;;;;;;;8.30;99.90;;;;;;5023074;28;19944;-61
2023/04/15 06:29:43;;;;;;;;;;;8.30;99.90;;;;;;5025287;28;19918;-62
2023/04/15 06:32:09;;;;;;;;;;;8.40;99.90;;;;;;5029548;28;19920;-63
2023/04/15 06:34:35;;;;;;;;;;;8.60;99.90;;;;;;5030260;28;19920;-63
2023/04/15 06:37:03;;;;;;;;;;;8.70;99.90;;;;;;5028838;28;20464;-62
2023/04/15 06:39:29;;;;;;;;;;;8.80;99.90;;;;;;5027498;28;20006;-62
2023/04/15 06:41:55;;;;;;;;;;;8.80;99.90;;;;;;5024834;28;19913;-62
2023/04/15 06:44:21;;;;;;;;;;;8.70;99.90;;;;;;5026965;28;19932;-62
2023/04/15 06:46:46;;;;;;;;;;;8.80;99.90;;;;;;5028791;28;19917;-62
2023/04/15 06:49:12;;;;;;;;;;;8.80;99.90;;;;;;5030027;28;19913;-62
2023/04/15 06:51:37;;;;;;;;;;;8.80;99.90;;;;;;5029468;28;19913;-63
2023/04/15 06:54:04;;;;;;;;;;;8.80;99.90;;;;;;5025630;28;19913;-63
2023/04/15 06:56:31;;;;;;;;;;;8.80;99.90;;;;;;5026982;28;19921;-63
2023/04/15 06:58:56;;;;;;;;;;;8.90;99.90;;;;;;5024649;28;20341;-63
2023/04/15 07:01:22;;;;;;;;;;;9.00;99.90;;;;;;5031354;28;20012;-62
2023/04/15 07:03:47;;;;;;;;;;;9.00;99.90;;;;;;5025355;28;19921;-61
2023/04/15 07:06:13;;;;;;;;;;;9.10;99.90;;;;;;5024303;28;19913;-63
2023/04/15 07:08:39;;;;;;;;;;;9.00;99.90;;;;;;5033878;28;20344;-62
2023/04/15 07:11:05;;;;;;;;;;;8.90;99.90;;;;;;5030168;28;20004;-62
2023/04/15 07:13:31;;;;;;;;;;;9.00;99.90;;;;;;5025446;28;20007;-62
2023/04/15 07:15:57;;;;;;;;;;;9.10;99.90;;;;;;5027389;28;20262;-63
2023/04/15 07:18:22;;;;;;;;;;;9.20;99.90;;;;;;5028967;28;20399;-63
2023/04/15 07:20:48;;;;;;;;;;;9.10;99.90;;;;;;5027777;28;20020;-62
2023/04/15 07:23:13;;;;;;;;;;;9.20;99.90;;;;;;5027711;28;19921;-63
2023/04/15 07:25:39;;;;;;;;;;;9.20;99.90;;;;;;5029603;28;20008;-63
2023/04/15 07:28:05;;;;;;;;;;;9.20;99.90;;;;;;5025277;28;20494;-63
2023/04/15 07:30:30;;;;;;;;;;;9.10;99.90;;;;;;5031213;28;19913;-62
2023/04/15 07:32:57;;;;;;;;;;;9.10;99.90;;;;;;5024574;28;19913;-62
2023/04/15 07:35:24;;;;;;;;;;;9.10;99.90;;;;;;5028273;28;20000;-62
2023/04/15 07:37:50;;;;;;;;;;;9.10;99.90;;;;;;5019101;28;19913;-63
2023/04/15 07:40:15;;;;;;;;;;;9.10;99.90;;;;;;5029942;28;19914;-63
2023/04/15 07:42:42;;;;;;;;;;;9.00;99.90;;;;;;5020648;28;20007;-61
2023/04/15 07:45:08;;;;;;;;;;;8.80;99.90;;;;;;5028793;28;19958;-65
2023/04/15 07:47:34;;;;;;;;;;;8.80;99.90;;;;;;5028229;28;19914;-63
2023/04/15 07:49:59;;;;;;;;;;;9.00;99.90;;;;;;5026752;28;19921;-62
2023/04/15 07:52:25;;;;;;;;;;;9.00;99.90;;;;;;5027982;28;19932;-63
2023/04/15 07:54:50;;;;;;;;;;;9.10;99.90;;;;;;5027953;28;19956;-63
2023/04/15 07:57:16;;;;;;;;;;;9.20;99.90;;;;;;5023635;28;20365;-62
2023/04/15 07:59:42;;;;;;;;;;;9.20;99.90;;;;;;5029213;28;20043;-63
2023/04/15 08:02:08;;;;;;;;;;;9.30;99.90;;;;;;5027172;28;20015;-62
2023/04/15 08:04:34;;;;;;;;;;;9.40;99.90;;;;;;5027759;28;19987;-62
2023/04/15 08:06:59;;;;;;;;;;;9.50;99.90;;;;;;5018172;28;19925;-63
2023/04/15 08:09:26;;;;;;;;;;;9.50;99.90;;;;;;5026577;28;19920;-62
2023/04/15 08:11:52;;;;;;;;;;;9.60;99.90;;;;;;5017504;28;19921;-62
2023/04/15 08:14:17;;;;;;;;;;;9.80;99.90;;;;;;5030042;28;19917;-63
2023/04/15 08:16:43;;;;;;;;;;;9.80;99.90;;;;;;5018556;28;19971;-63
2023/04/15 08:19:09;;;;;;;;;;;9.80;99.90;;;;;;5024374;28;19913;-63
2023/04/15 08:21:35;;;;;;;;;;;9.90;99.90;;;;;;5026293;28;19913;-63
2023/04/15 08:24:02;;;;;;;;;;;9.90;99.90;;;;;;5025793;28;19921;-63
2023/04/15 08:26:27;;;;;;;;;;;9.90;99.90;;;;;;5028608;28;20345;-63
2023/04/15 08:28:53;;;;;;;;;;;9.80;99.90;;;;;;5026777;28;19960;-63
2023/04/15 08:31:19;;;;;;;;;;;9.60;99.90;;;;;;5030631;28;20376;-64
2023/04/15 08:33:44;;;;;;;;;;;9.80;99.90;;;;;;5025088;28;19932;-64
2023/04/15 08:36:11;;;;;;;;;;;9.90;99.90;;;;;;5024093;28;19925;-63
2023/04/15 08:38:36;;;;;;;;;;;9.90;99.90;;;;;;5026322;28;19966;-64
2023/04/15 08:41:17;;;;;;;;;;;9.90;99.90;;;;;;5025753;28;20004;-63
2023/04/15 08:43:47;;;;;;;;;;;10.00;99.90;;;;;;5023554;28;19948;-63
2023/04/15 08:46:14;;;;;;;;;;;10.30;99.90;;;;;;5026084;28;20356;-63
2023/04/15 08:48:40;;;;;;;;;;;10.30;99.90;;;;;;5026556;28;19913;-64
2023/04/15 08:51:06;;;;;;;;;;;10.40;99.90;;;;;;5026392;28;19920;-63
2023/04/15 08:53:32;;;;;;;;;;;10.40;99.90;;;;;;5028096;28;20365;-62
2023/04/15 08:56:02;;;;;;;;;;;10.70;99.90;;;;;;5026893;28;19917;-61
2023/04/15 08:58:28;;;;;;;;;;;10.90;99.90;;;;;;5024038;28;19917;-61
2023/04/15 09:00:53;;;;;;;;;;;10.70;99.90;;;;;;5024974;28;20051;-63
2023/04/15 09:03:21;;;;;;;;;;;10.90;99.90;;;;;;5026311;28;19971;-63
2023/04/15 09:05:47;;;;;;;;;;;10.90;99.90;;;;;;5025335;28;19995;-62
2023/04/15 09:08:12;;;;;;;;;;;11.00;99.90;;;;;;5025586;28;19917;-64
2023/04/15 09:10:38;;;;;;;;;;;11.10;99.90;;;;;;5048465;28;19913;-64
2023/04/15 09:13:04;;;;;;;;;;;11.20;99.90;;;;;;5017895;28;19968;-63
2023/04/15 09:15:31;;;;;;;;;;;11.50;99.90;;;;;;5023056;28;19914;-64
2023/04/15 09:17:56;;;;;;;;;;;11.40;99.90;;;;;;5026213;28;20277;-64
2023/04/15 09:20:22;;;;;;;;;;;11.20;99.90;;;;;;5027128;28;20380;-64
2023/04/15 09:22:48;;;;;;;;;;;11.30;99.90;;;;;;5022979;28;19963;-63
2023/04/15 09:25:14;;;;;;;;;;;11.60;99.90;;;;;;5026835;28;19913;-63
2023/04/15 09:27:49;;;;;;;;;;;11.60;99.90;;;;;;5023509;28;20327;-61
2023/04/15 09:30:15;;;;;;;;;;;11.40;99.90;;;;;;5030628;28;20332;-63
2023/04/15 09:33:09;;;;;;;;;;;11.30;99.90;;;;;;5034101;28;19917;-63
2023/04/15 09:35:35;;;;;;;;;;;11.50;99.90;;;;;;5025445;28;20267;-63
2023/04/15 09:38:03;;;;;;;;;;;11.50;99.90;;;;;;5030377;28;20361;-62
2023/04/15 09:40:34;;;;;;;;;;;11.60;99.90;;;;;;5027598;28;19917;-63
2023/04/15 09:43:00;;;;;;;;;;;11.30;99.90;;;;;;5026993;28;20372;-63
2023/04/15 09:45:26;;;;;;;;;;;11.70;99.90;;;;;;5030139;28;20012;-63
2023/04/15 09:47:52;;;;;;;;;;;11.70;99.90;;;;;;5026536;28;20321;-62
2023/04/15 09:50:18;;;;;;;;;;;11.70;99.90;;;;;;5032040;28;19917;-63
2023/04/15 09:52:44;;;;;;;;;;;11.60;99.90;;;;;;5024909;28;19978;-62
2023/04/15 09:55:11;;;;;;;;;;;11.50;99.90;;;;;;5028118;28;20369;-62
2023/04/15 09:57:37;;;;;;;;;;;11.60;99.90;;;;;;5026957;28;19917;-62
2023/04/15 10:00:04;;;;;;;;;;;11.60;99.90;;;;;;5026714;28;19927;-61
2023/04/15 10:02:30;;;;;;;;;;;11.80;99.90;;;;;;5028928;28;19920;-62
2023/04/15 10:04:56;;;;;;;;;;;11.90;99.90;;;;;;5028927;28;19913;-62
2023/04/15 10:07:22;;;;;;;;;;;11.90;99.90;;;;;;5032453;28;20365;-64
2023/04/15 10:09:48;;;;;;;;;;;12.00;99.90;;;;;;5028255;28;20007;-63
2023/04/15 10:12:15;;;;;;;;;;;12.20;99.90;;;;;;5025712;28;19913;-62
2023/04/15 10:14:41;;;;;;;;;;;12.30;99.90;;;;;;5028200;28;20373;-62
2023/04/15 10:17:09;;;;;;;;;;;12.50;99.90;;;;;;5031079;28;20320;-62
2023/04/15 10:19:36;;;;;;;;;;;12.60;99.90;;;;;;5030016;28;19913;-62
2023/04/15 10:22:02;;;;;;;;;;;12.80;99.90;;;;;;5028146;28;19951;-63
2023/04/15 10:24:29;;;;;;;;;;;12.90;99.90;;;;;;5030009;28;20006;-62
2023/04/15 10:26:56;;;;;;;;;;;12.90;99.90;;;;;;5024487;28;19944;-64
2023/04/15 10:29:22;;;;;;;;;;;12.70;99.90;;;;;;5029362;28;19913;-61
2023/04/15 10:31:48;;;;;;;;;;;12.70;99.90;;;;;;5027984;28;19936;-62
2023/04/15 10:34:14;;;;;;;;;;;12.60;99.90;;;;;;5028878;28;19913;-62
2023/04/15 10:36:40;;;;;;;;;;;12.70;99.90;;;;;;5028675;28;20495;-63
2023/04/15 10:39:24;;;;;;;;;;;13.00;99.90;;;;;;5024631;28;19996;-62
2023/04/15 10:42:05;;;;;;;;;;;13.20;99.90;;;;;;5024783;28;19917;-62
2023/04/15 10:44:31;;;;;;;;;;;13.20;99.90;;;;;;5028883;28;19925;-62
2023/04/15 10:46:57;;;;;;;;;;;13.60;99.90;;;;;;5027394;28;20051;-62
2023/04/15 10:49:25;;;;;;;;;;;13.30;99.90;;;;;;5031716;28;20399;-62
2023/04/15 10:52:02;;;;;;;;;;;13.10;99.90;;;;;;5025764;28;19913;-62
2023/04/15 10:54:27;;;;;;;;;;;13.00;99.90;;;;;;5027131;28;19960;-63
2023/04/15 10:57:00;;;;;;;;;;;13.10;99.90;;;;;;5026849;28;19952;-62
2023/04/15 10:59:29;;;;;;;;;;;13.20;99.90;;;;;;5026379;28;19983;-63
2023/04/15 11:01:57;;;;;;;;;;;13.00;99.90;;;;;;5020592;28;20277;-65
2023/04/15 11:04:42;;;;;;;;;;;13.10;99.90;;;;;;5028067;28;19929;-62
2023/04/15 11:07:07;;;;;;;;;;;13.20;99.90;;;;;;5025127;28;19920;-62
2023/04/15 11:09:33;;;;;;;;;;;13.40;99.90;;;;;;5029186;28;19917;-62
2023/04/15 11:12:08;;;;;;;;;;;13.80;99.90;;;;;;5025428;28;19928;-62
2023/04/15 11:14:38;;;;;;;;;;;14.10;99.90;;;;;;5026066;28;19917;-62
2023/04/15 11:17:04;;;;;;;;;;;14.00;99.90;;;;;;5024852;28;19921;-62
2023/04/15 11:19:37;;;;;;;;;;;14.30;99.90;;;;;;5029578;28;20269;-62
2023/04/15 11:22:09;;;;;;;;;;;14.80;99.90;;;;;;5024412;28;19951;-62
2023/04/15 11:24:35;;;;;;;;;;;15.10;99.90;;;;;;5028605;28;19921;-62
2023/04/15 11:27:01;;;;;;;;;;;14.80;99.90;;;;;;5024421;28;19921;-61
2023/04/15 11:29:32;;;;;;;;;;;14.90;99.90;;;;;;5028419;28;20372;-62
2023/04/15 11:32:04;;;;;;;;;;;15.30;99.90;;;;;;5028229;28;20000;-61
2023/04/15 11:34:31;;;;;;;;;;;16.30;99.90;;;;;;5029217;28;20478;-62
2023/04/15 11:36:57;;;;;;;;;;;16.20;99.90;;;;;;5028529;28;19920;-62
2023/04/15 11:39:22;;;;;;;;;;;16.30;99.90;;;;;;5031458;28;19913;-62
2023/04/15 11:41:48;;;;;;;;;;;16.90;99.90;;;;;;5027874;28;19960;-62
2023/04/15 11:44:17;;;;;;;;;;;16.70;99.90;;;;;;5031257;28;19951;-62
2023/04/15 11:46:43;;;;;;;;;;;16.30;99.90;;;;;;5032378;28;19921;-63
2023/04/15 11:49:08;;;;;;;;;;;15.70;99.90;;;;;;5028317;28;19932;-63
2023/04/15 11:51:34;;;;;;;;;;;15.70;99.90;;;;;;5031307;28;19913;-63
2023/04/15 11:54:00;;;;;;;;;;;16.60;99.90;;;;;;5025137;28;20361;-62
2023/04/15 11:56:26;;;;;;;;;;;17.40;99.90;;;;;;5025058;28;19913;-62
2023/04/15 11:58:55;;;;;;;;;;;17.50;99.90;;;;;;5029409;28;19952;-62
2023/04/15 12:01:30;;;;;;;;;;;17.50;99.90;;;;;;5024311;28;19913;-62
2023/04/15 12:03:58;;;;;;;;;;;17.30;99.90;;;;;;5027173;28;19975;-62
2023/04/15 12:06:24;;;;;;;;;;;17.40;99.90;;;;;;5026724;28;20380;-62
2023/04/15 12:09:08;;;;;;;;;;;16.80;99.90;;;;;;5023263;28;19920;-62
2023/04/15 12:11:36;;;;;;;;;;;16.40;99.90;;;;;;5018666;28;20439;-62
2023/04/15 12:14:23;;;;;;;;;;;16.40;99.90;;;;;;5022326;28;20031;-63
2023/04/15 12:16:53;;;;;;;;;;;16.30;99.90;;;;;;5023801;28;19964;-61
2023/04/15 12:19:28;;;;;;;;;;;16.10;99.90;;;;;;5030617;28;19996;-62
2023/04/15 12:22:00;;;;;;;;;;;15.30;99.90;;;;;;5023586;28;19921;-62
2023/04/15 12:24:26;;;;;;;;;;;14.90;99.90;;;;;;5027814;28;19925;-63
2023/04/15 12:26:56;;;;;;;;;;;15.10;99.90;;;;;;5023852;28;20365;-61
2023/04/15 12:29:27;;;;;;;;;;;16.00;99.90;;;;;;5030635;28;20366;-62
2023/04/15 12:31:56;;;;;;;;;;;17.20;99.90;;;;;;5026179;28;19919;-61
2023/04/15 12:34:28;;;;;;;;;;;17.30;99.90;;;;;;5027400;28;19913;-60
2023/04/15 12:36:55;;;;;;;;;;;17.70;99.90;;;;;;5022963;28;20369;-62
2023/04/15 12:39:22;;;;;;;;;;;17.30;99.90;;;;;;5027859;28;19976;-61
2023/04/15 12:41:47;;;;;;;;;;;17.30;99.90;;;;;;5020426;28;19913;-60
2023/04/15 12:44:13;;;;;;;;;;;17.80;99.90;;;;;;5033288;28;20278;-61
2023/04/15 12:46:38;;;;;;;;;;;17.90;99.90;;;;;;5029346;28;19921;-61
2023/04/15 12:49:04;;;;;;;;;;;17.10;99.90;;;;;;5022865;28;19917;-60
2023/04/15 12:51:30;;;;;;;;;;;16.20;99.90;;;;;;5027701;28;20333;-61
2023/04/15 12:53:56;;;;;;;;;;;16.40;99.90;;;;;;5019866;28;19913;-61
2023/04/15 12:56:22;;;;;;;;;;;16.80;99.90;;;;;;5037561;28;19945;-61
2023/04/15 12:58:48;;;;;;;;;;;16.70;99.90;;;;;;5025891;28;19918;-62
2023/04/15 13:01:14;;;;;;;;;;;16.20;99.90;;;;;;5027766;28;19920;-61
2023/04/15 13:03:39;;;;;;;;;;;15.90;99.90;;;;;;5026748;28;19933;-61
2023/04/15 13:06:05;;;;;;;;;;;15.70;99.90;;;;;;5025343;28;19920;-62
2023/04/15 13:08:31;;;;;;;;;;;16.30;99.90;;;;;;5026785;28;19995;-62
2023/04/15 13:10:57;;;;;;;;;;;17.20;99.90;;;;;;5029074;28;19959;-61
2023/04/15 13:13:22;;;;;;;;;;;17.80;99.90;;;;;;5029527;28;19979;-62
2023/04/15 13:15:48;;;;;;;;;;;17.90;99.90;;;;;;5029874;28;20012;-62
2023/04/15 13:18:14;;;;;;;;;;;17.90;99.90;;;;;;5027244;28;20361;-62
2023/04/15 13:20:40;;;;;;;;;;;17.70;99.90;;;;;;5031526;28;20296;-61
2023/04/15 13:23:06;;;;;;;;;;;18.10;99.90;;;;;;5026741;28;19940;-62
2023/04/15 13:25:31;;;;;;;;;;;18.50;99.90;;;;;;5029903;28;20380;-62
2023/04/15 13:27:57;;;;;;;;;;;18.90;99.90;;;;;;5024292;28;19913;-62
2023/04/15 13:30:22;;;;;;;;;;;19.50;99.90;;;;;;5035645;28;20032;-62
2023/04/15 13:32:49;;;;;;;;;;;19.70;99.90;;;;;;5034336;28;19923;-62
2023/04/15 13:35:15;;;;;;;;;;;19.90;99.90;;;;;;5036524;28;19913;-62
2023/04/15 13:37:40;;;;;;;;;;;20.50;99.90;;;;;;5032580;28;19912;-62
2023/04/15 13:40:06;;;;;;;;;;;20.90;99.90;;;;;;5037370;28;19912;-62
2023/04/15 13:42:32;;;;;;;;;;;21.50;99.90;;;;;;5027199;28;19921;-62
2023/04/15 13:44:58;;;;;;;;;;;20.80;99.90;;;;;;5035330;28;20388;-62
2023/04/15 13:47:23;;;;;;;;;;;19.30;99.90;;;;;;5032209;28;19982;-61
2023/04/15 13:49:49;;;;;;;;;;;18.40;99.90;;;;;;5033202;28;19914;-62
2023/04/15 13:52:15;;;;;;;;;;;17.70;99.90;;;;;;5028190;28;20406;-62
2023/04/15 13:54:40;;;;;;;;;;;17.10;99.90;;;;;;5028572;28;20436;-63
2023/04/15 13:57:06;;;;;;;;;;;16.70;99.90;;;;;;5032237;28;20399;-62
2023/04/15 13:59:32;;;;;;;;;;;16.30;99.90;;;;;;5034211;28;20308;-62
2023/04/15 14:01:57;;;;;;;;;;;16.10;99.90;;;;;;5031351;28;20357;-62
2023/04/15 14:04:23;;;;;;;;;;;16.30;99.90;;;;;;5034040;28;19929;-62
2023/04/15 14:06:49;;;;;;;;;;;16.80;99.90;;;;;;5029139;28;20279;-63
2023/04/15 14:09:15;;;;;;;;;;;18.10;99.90;;;;;;5035206;28;19920;-62
2023/04/15 14:11:40;;;;;;;;;;;19.20;99.90;;;;;;5032219;28;19913;-62
2023/04/15 14:14:06;;;;;;;;;;;20.10;99.90;;;;;;5033393;28;19935;-60
2023/04/15 14:16:32;;;;;;;;;;;20.60;99.90;;;;;;5035392;28;19913;-62
2023/04/15 14:18:58;;;;;;;;;;;21.40;99.90;;;;;;5032940;28;19912;-61
2023/04/15 14:21:25;;;;;;;;;;;21.90;97.30;;;;;;5031342;28;20387;-61
2023/04/15 14:23:50;;;;;;;;;;;20.30;96.00;;;;;;5026361;28;20293;-61